sensor_id;sensor_type;location;lat;lon;timestamp;P1;durP1;ratioP1;P2;durP2;ratioP2
72335;SDS011;73817;48.446;8.834;2023-11-21T00:00:47;2.17;;;1.02;;
72335;SDS011;73817;48.446;8.834;2023-11-21T00:03:47;2.13;;;1.20;;
72335;SDS011;73817;48.446;8.834;2023-11-21T00:06:48;3.15;;;1.20;;
72335;SDS011;73817;48.446;8.834;2023-11-21T00:09:49;2.80;;;1.13;;
72335;SDS011;73817;48.446;8.834;2023-11-21T00:12:49;1.63;;;0.60;;
72335;SDS011;73817;48.446;8.834;2023-11-21T00:15:49;3.00;;;1.02;;
72335;SDS011;73817;48.446;8.834;2023-11-21T00:18:50;2.65;;;0.80;;
72335;SDS011;73817;48.446;8.834;2023-11-21T00:21:51;3.42;;;0.93;;
72335;SDS011;73817;48.446;8.834;2023-11-21T00:24:51;1.40;;;0.60;;
72335;SDS011;73817;48.446;8.834;2023-11-21T00:27:52;3.95;;;0.60;;
72335;SDS011;73817;48.446;8.834;2023-11-21T00:30:54;2.63;;;0.82;;
72335;SDS011;73817;48.446;8.834;2023-11-21T00:33:55;2.53;;;0.90;;
72335;SDS011;73817;48.446;8.834;2023-11-21T00:36:55;3.90;;;0.68;;
72335;SDS011;73817;48.446;8.834;2023-11-21T00:39:56;1.17;;;0.60;;
72335;SDS011;73817;48.446;8.834;2023-11-21T00:42:56;4.10;;;0.55;;
72335;SDS011;73817;48.446;8.834;2023-11-21T00:45:57;1.08;;;0.52;;
72335;SDS011;73817;48.446;8.834;2023-11-21T00:48:57;3.60;;;0.73;;
72335;SDS011;73817;48.446;8.834;2023-11-21T00:51:57;4.03;;;0.70;;
72335;SDS011;73817;48.446;8.834;2023-11-21T00:54:58;1.83;;;0.52;;
72335;SDS011;73817;48.446;8.834;2023-11-21T00:58:00;0.73;;;0.30;;
72335;SDS011;73817;48.446;8.834;2023-11-21T01:01:00;1.73;;;0.50;;
72335;SDS011;73817;48.446;8.834;2023-11-21T01:04:01;1.65;;;0.50;;
72335;SDS011;73817;48.446;8.834;2023-11-21T01:07:01;1.05;;;0.50;;
72335;SDS011;73817;48.446;8.834;2023-11-21T01:10:02;1.48;;;0.70;;
72335;SDS011;73817;48.446;8.834;2023-11-21T01:13:05;0.90;;;0.32;;
72335;SDS011;73817;48.446;8.834;2023-11-21T01:16:07;1.23;;;0.57;;
72335;SDS011;73817;48.446;8.834;2023-11-21T01:19:08;3.15;;;0.75;;
72335;SDS011;73817;48.446;8.834;2023-11-21T01:22:09;1.30;;;0.55;;
72335;SDS011;73817;48.446;8.834;2023-11-21T01:25:11;0.75;;;0.35;;
72335;SDS011;73817;48.446;8.834;2023-11-21T01:28:14;1.13;;;0.43;;
72335;SDS011;73817;48.446;8.834;2023-11-21T01:31:14;1.40;;;0.43;;
72335;SDS011;73817;48.446;8.834;2023-11-21T01:34:15;1.92;;;0.32;;
72335;SDS011;73817;48.446;8.834;2023-11-21T01:37:15;2.35;;;0.68;;
72335;SDS011;73817;48.446;8.834;2023-11-21T01:40:17;1.73;;;0.70;;
72335;SDS011;73817;48.446;8.834;2023-11-21T01:43:17;1.15;;;0.60;;
72335;SDS011;73817;48.446;8.834;2023-11-21T01:46:18;1.05;;;0.35;;
72335;SDS011;73817;48.446;8.834;2023-11-21T01:52:20;1.80;;;0.30;;
72335;SDS011;73817;48.446;8.834;2023-11-21T01:55:21;2.25;;;0.40;;
72335;SDS011;73817;48.446;8.834;2023-11-21T01:58:21;1.15;;;0.32;;
72335;SDS011;73817;48.446;8.834;2023-11-21T02:01:22;0.95;;;0.30;;
72335;SDS011;73817;48.446;8.834;2023-11-21T02:04:22;0.47;;;0.32;;
72335;SDS011;73817;48.446;8.834;2023-11-21T02:07:23;3.67;;;0.40;;
72335;SDS011;73817;48.446;8.834;2023-11-21T02:10:23;1.17;;;0.43;;
72335;SDS011;73817;48.446;8.834;2023-11-21T02:13:24;1.25;;;0.32;;
72335;SDS011;73817;48.446;8.834;2023-11-21T02:16:24;0.65;;;0.35;;
72335;SDS011;73817;48.446;8.834;2023-11-21T02:19:25;1.67;;;0.30;;
72335;SDS011;73817;48.446;8.834;2023-11-21T02:22:26;1.05;;;0.20;;
72335;SDS011;73817;48.446;8.834;2023-11-21T02:25:31;1.02;;;0.35;;
72335;SDS011;73817;48.446;8.834;2023-11-21T02:28:33;0.73;;;0.20;;
72335;SDS011;73817;48.446;8.834;2023-11-21T02:31:33;1.63;;;0.40;;
72335;SDS011;73817;48.446;8.834;2023-11-21T02:34:33;0.70;;;0.40;;
72335;SDS011;73817;48.446;8.834;2023-11-21T02:37:34;1.05;;;0.22;;
72335;SDS011;73817;48.446;8.834;2023-11-21T02:40:35;0.35;;;0.25;;
72335;SDS011;73817;48.446;8.834;2023-11-21T02:43:35;0.30;;;0.17;;
72335;SDS011;73817;48.446;8.834;2023-11-21T02:46:36;0.20;;;0.13;;
72335;SDS011;73817;48.446;8.834;2023-11-21T02:49:37;1.90;;;0.40;;
72335;SDS011;73817;48.446;8.834;2023-11-21T02:52:37;0.93;;;0.65;;
72335;SDS011;73817;48.446;8.834;2023-11-21T02:55:38;0.45;;;0.15;;
72335;SDS011;73817;48.446;8.834;2023-11-21T02:58:41;0.57;;;0.30;;
72335;SDS011;73817;48.446;8.834;2023-11-21T03:01:43;1.80;;;0.20;;
72335;SDS011;73817;48.446;8.834;2023-11-21T03:04:44;2.30;;;0.35;;
72335;SDS011;73817;48.446;8.834;2023-11-21T03:07:44;2.72;;;0.30;;
72335;SDS011;73817;48.446;8.834;2023-11-21T03:10:45;0.82;;;0.40;;
72335;SDS011;73817;48.446;8.834;2023-11-21T03:13:45;0.50;;;0.45;;
72335;SDS011;73817;48.446;8.834;2023-11-21T03:16:46;0.85;;;0.32;;
72335;SDS011;73817;48.446;8.834;2023-11-21T03:19:47;0.20;;;0.20;;
72335;SDS011;73817;48.446;8.834;2023-11-21T03:22:47;0.47;;;0.22;;
72335;SDS011;73817;48.446;8.834;2023-11-21T03:25:48;0.20;;;0.10;;
72335;SDS011;73817;48.446;8.834;2023-11-21T03:28:48;0.30;;;0.15;;
72335;SDS011;73817;48.446;8.834;2023-11-21T03:31:49;1.00;;;0.32;;
72335;SDS011;73817;48.446;8.834;2023-11-21T03:34:56;0.35;;;0.10;;
72335;SDS011;73817;48.446;8.834;2023-11-21T03:37:57;1.40;;;0.60;;
72335;SDS011;73817;48.446;8.834;2023-11-21T03:40:58;0.10;;;0.10;;
72335;SDS011;73817;48.446;8.834;2023-11-21T03:43:58;2.15;;;0.38;;
72335;SDS011;73817;48.446;8.834;2023-11-21T03:46:58;0.40;;;0.30;;
72335;SDS011;73817;48.446;8.834;2023-11-21T03:49:59;0.55;;;0.20;;
72335;SDS011;73817;48.446;8.834;2023-11-21T03:52:59;0.20;;;0.20;;
72335;SDS011;73817;48.446;8.834;2023-11-21T03:56:01;1.83;;;0.32;;
72335;SDS011;73817;48.446;8.834;2023-11-21T03:59:02;0.22;;;0.10;;
72335;SDS011;73817;48.446;8.834;2023-11-21T04:02:03;2.38;;;0.25;;
72335;SDS011;73817;48.446;8.834;2023-11-21T04:05:04;0.17;;;0.13;;
72335;SDS011;73817;48.446;8.834;2023-11-21T04:08:04;0.70;;;0.30;;
72335;SDS011;73817;48.446;8.834;2023-11-21T04:11:05;1.15;;;0.10;;
72335;SDS011;73817;48.446;8.834;2023-11-21T04:14:05;1.58;;;0.70;;
72335;SDS011;73817;48.446;8.834;2023-11-21T04:17:06;1.63;;;0.50;;
72335;SDS011;73817;48.446;8.834;2023-11-21T04:20:07;1.15;;;0.40;;
72335;SDS011;73817;48.446;8.834;2023-11-21T04:23:09;0.60;;;0.25;;
72335;SDS011;73817;48.446;8.834;2023-11-21T04:26:10;2.90;;;0.85;;
72335;SDS011;73817;48.446;8.834;2023-11-21T04:29:10;1.20;;;0.52;;
72335;SDS011;73817;48.446;8.834;2023-11-21T04:32:11;0.60;;;0.43;;
72335;SDS011;73817;48.446;8.834;2023-11-21T04:35:12;0.93;;;0.60;;
72335;SDS011;73817;48.446;8.834;2023-11-21T04:38:13;2.40;;;0.60;;
72335;SDS011;73817;48.446;8.834;2023-11-21T04:41:13;2.17;;;1.45;;
72335;SDS011;73817;48.446;8.834;2023-11-21T04:44:13;3.55;;;0.63;;
72335;SDS011;73817;48.446;8.834;2023-11-21T04:47:16;0.85;;;0.70;;
72335;SDS011;73817;48.446;8.834;2023-11-21T04:50:18;2.70;;;0.43;;
72335;SDS011;73817;48.446;8.834;2023-11-21T04:53:19;1.13;;;0.47;;
72335;SDS011;73817;48.446;8.834;2023-11-21T04:56:19;2.65;;;0.30;;
72335;SDS011;73817;48.446;8.834;2023-11-21T04:59:20;0.40;;;0.20;;
72335;SDS011;73817;48.446;8.834;2023-11-21T05:02:20;2.30;;;0.40;;
72335;SDS011;73817;48.446;8.834;2023-11-21T05:05:21;1.13;;;0.30;;
72335;SDS011;73817;48.446;8.834;2023-11-21T05:08:22;0.65;;;0.20;;
72335;SDS011;73817;48.446;8.834;2023-11-21T05:11:23;0.30;;;0.30;;
72335;SDS011;73817;48.446;8.834;2023-11-21T05:14:27;1.40;;;0.22;;
72335;SDS011;73817;48.446;8.834;2023-11-21T05:17:28;4.05;;;0.40;;
72335;SDS011;73817;48.446;8.834;2023-11-21T05:20:28;1.20;;;0.25;;
72335;SDS011;73817;48.446;8.834;2023-11-21T05:23:28;0.30;;;0.20;;
72335;SDS011;73817;48.446;8.834;2023-11-21T05:26:29;5.57;;;0.52;;
72335;SDS011;73817;48.446;8.834;2023-11-21T05:29:29;0.63;;;0.30;;
72335;SDS011;73817;48.446;8.834;2023-11-21T05:32:29;0.70;;;0.32;;
72335;SDS011;73817;48.446;8.834;2023-11-21T05:35:30;0.88;;;0.55;;
72335;SDS011;73817;48.446;8.834;2023-11-21T05:38:30;2.78;;;1.00;;
72335;SDS011;73817;48.446;8.834;2023-11-21T05:41:31;2.75;;;0.80;;
72335;SDS011;73817;48.446;8.834;2023-11-21T05:44:31;1.10;;;0.90;;
72335;SDS011;73817;48.446;8.834;2023-11-21T05:47:32;2.05;;;0.70;;
72335;SDS011;73817;48.446;8.834;2023-11-21T05:50:32;1.15;;;0.20;;
72335;SDS011;73817;48.446;8.834;2023-11-21T05:53:33;1.02;;;0.30;;
72335;SDS011;73817;48.446;8.834;2023-11-21T05:56:33;1.40;;;0.47;;
72335;SDS011;73817;48.446;8.834;2023-11-21T05:59:34;0.75;;;0.22;;
72335;SDS011;73817;48.446;8.834;2023-11-21T06:02:34;0.40;;;0.32;;
72335;SDS011;73817;48.446;8.834;2023-11-21T06:05:35;3.22;;;0.50;;
72335;SDS011;73817;48.446;8.834;2023-11-21T06:08:35;1.35;;;0.20;;
72335;SDS011;73817;48.446;8.834;2023-11-21T06:11:36;0.10;;;0.10;;
72335;SDS011;73817;48.446;8.834;2023-11-21T06:14:36;0.30;;;0.20;;
72335;SDS011;73817;48.446;8.834;2023-11-21T06:17:36;1.05;;;0.40;;
72335;SDS011;73817;48.446;8.834;2023-11-21T06:20:37;0.50;;;0.50;;
72335;SDS011;73817;48.446;8.834;2023-11-21T06:23:37;0.50;;;0.28;;
72335;SDS011;73817;48.446;8.834;2023-11-21T06:26:38;2.15;;;0.30;;
72335;SDS011;73817;48.446;8.834;2023-11-21T06:29:38;0.52;;;0.35;;
72335;SDS011;73817;48.446;8.834;2023-11-21T06:32:39;0.52;;;0.30;;
72335;SDS011;73817;48.446;8.834;2023-11-21T06:35:39;2.25;;;0.50;;
72335;SDS011;73817;48.446;8.834;2023-11-21T06:38:40;1.50;;;0.43;;
72335;SDS011;73817;48.446;8.834;2023-11-21T06:41:40;0.35;;;0.35;;
72335;SDS011;73817;48.446;8.834;2023-11-21T06:44:40;0.82;;;0.40;;
72335;SDS011;73817;48.446;8.834;2023-11-21T06:47:41;0.50;;;0.30;;
72335;SDS011;73817;48.446;8.834;2023-11-21T06:50:42;0.50;;;0.30;;
72335;SDS011;73817;48.446;8.834;2023-11-21T06:53:42;0.95;;;0.52;;
72335;SDS011;73817;48.446;8.834;2023-11-21T06:56:42;0.50;;;0.40;;
72335;SDS011;73817;48.446;8.834;2023-11-21T06:59:43;0.65;;;0.32;;
72335;SDS011;73817;48.446;8.834;2023-11-21T07:02:43;1.20;;;0.40;;
72335;SDS011;73817;48.446;8.834;2023-11-21T07:05:45;0.55;;;0.30;;
72335;SDS011;73817;48.446;8.834;2023-11-21T07:08:45;1.40;;;0.35;;
72335;SDS011;73817;48.446;8.834;2023-11-21T07:11:45;0.35;;;0.22;;
72335;SDS011;73817;48.446;8.834;2023-11-21T07:14:48;1.38;;;0.22;;
72335;SDS011;73817;48.446;8.834;2023-11-21T07:17:48;0.50;;;0.35;;
72335;SDS011;73817;48.446;8.834;2023-11-21T07:20:48;0.50;;;0.50;;
72335;SDS011;73817;48.446;8.834;2023-11-21T07:23:49;1.17;;;0.30;;
72335;SDS011;73817;48.446;8.834;2023-11-21T07:26:49;2.08;;;0.73;;
72335;SDS011;73817;48.446;8.834;2023-11-21T07:29:49;3.15;;;1.67;;
72335;SDS011;73817;48.446;8.834;2023-11-21T07:32:50;1.77;;;0.43;;
72335;SDS011;73817;48.446;8.834;2023-11-21T07:35:50;2.55;;;0.55;;
72335;SDS011;73817;48.446;8.834;2023-11-21T07:38:51;2.00;;;0.70;;
72335;SDS011;73817;48.446;8.834;2023-11-21T07:41:51;1.92;;;0.40;;
72335;SDS011;73817;48.446;8.834;2023-11-21T07:44:52;0.32;;;0.32;;
72335;SDS011;73817;48.446;8.834;2023-11-21T07:47:52;1.13;;;0.40;;
72335;SDS011;73817;48.446;8.834;2023-11-21T07:50:53;0.75;;;0.30;;
72335;SDS011;73817;48.446;8.834;2023-11-21T07:53:54;2.33;;;0.50;;
72335;SDS011;73817;48.446;8.834;2023-11-21T07:56:54;0.57;;;0.40;;
72335;SDS011;73817;48.446;8.834;2023-11-21T07:59:54;1.17;;;0.70;;
72335;SDS011;73817;48.446;8.834;2023-11-21T08:02:55;0.80;;;0.75;;
72335;SDS011;73817;48.446;8.834;2023-11-21T08:05:58;0.73;;;0.60;;
72335;SDS011;73817;48.446;8.834;2023-11-21T08:08:59;1.02;;;0.80;;
72335;SDS011;73817;48.446;8.834;2023-11-21T08:12:00;0.82;;;0.68;;
72335;SDS011;73817;48.446;8.834;2023-11-21T08:15:02;1.23;;;0.68;;
72335;SDS011;73817;48.446;8.834;2023-11-21T08:18:03;1.00;;;0.32;;
72335;SDS011;73817;48.446;8.834;2023-11-21T08:21:04;1.67;;;0.40;;
72335;SDS011;73817;48.446;8.834;2023-11-21T08:24:08;1.42;;;0.22;;
72335;SDS011;73817;48.446;8.834;2023-11-21T08:27:10;2.60;;;0.40;;
72335;SDS011;73817;48.446;8.834;2023-11-21T08:30:11;0.70;;;0.52;;
72335;SDS011;73817;48.446;8.834;2023-11-21T08:33:14;2.38;;;0.63;;
72335;SDS011;73817;48.446;8.834;2023-11-21T08:36:14;1.67;;;0.50;;
72335;SDS011;73817;48.446;8.834;2023-11-21T08:39:15;1.30;;;0.60;;
72335;SDS011;73817;48.446;8.834;2023-11-21T08:42:16;1.85;;;1.00;;
72335;SDS011;73817;48.446;8.834;2023-11-21T08:45:18;0.90;;;0.50;;
72335;SDS011;73817;48.446;8.834;2023-11-21T08:48:19;0.77;;;0.52;;
72335;SDS011;73817;48.446;8.834;2023-11-21T08:51:19;0.82;;;0.40;;
72335;SDS011;73817;48.446;8.834;2023-11-21T08:54:20;6.15;;;0.80;;
72335;SDS011;73817;48.446;8.834;2023-11-21T08:57:24;2.17;;;1.20;;
72335;SDS011;73817;48.446;8.834;2023-11-21T09:00:25;2.05;;;0.90;;
72335;SDS011;73817;48.446;8.834;2023-11-21T09:03:25;0.80;;;0.63;;
72335;SDS011;73817;48.446;8.834;2023-11-21T09:06:25;2.53;;;0.90;;
72335;SDS011;73817;48.446;8.834;2023-11-21T09:09:26;1.92;;;0.63;;
72335;SDS011;73817;48.446;8.834;2023-11-21T09:12:26;1.85;;;1.13;;
72335;SDS011;73817;48.446;8.834;2023-11-21T09:15:26;1.00;;;0.90;;
72335;SDS011;73817;48.446;8.834;2023-11-21T09:18:27;3.90;;;1.50;;
72335;SDS011;73817;48.446;8.834;2023-11-21T09:21:28;2.05;;;0.77;;
72335;SDS011;73817;48.446;8.834;2023-11-21T09:24:28;1.30;;;0.93;;
72335;SDS011;73817;48.446;8.834;2023-11-21T09:27:29;0.57;;;0.50;;
72335;SDS011;73817;48.446;8.834;2023-11-21T09:30:29;2.55;;;1.15;;
72335;SDS011;73817;48.446;8.834;2023-11-21T09:33:31;0.80;;;0.70;;
72335;SDS011;73817;48.446;8.834;2023-11-21T09:36:31;3.92;;;1.00;;
72335;SDS011;73817;48.446;8.834;2023-11-21T09:39:33;1.95;;;1.17;;
72335;SDS011;73817;48.446;8.834;2023-11-21T09:42:38;0.98;;;0.80;;
72335;SDS011;73817;48.446;8.834;2023-11-21T09:45:47;0.85;;;0.60;;
72335;SDS011;73817;48.446;8.834;2023-11-21T09:48:53;1.20;;;0.75;;
72335;SDS011;73817;48.446;8.834;2023-11-21T09:51:56;1.63;;;0.73;;
72335;SDS011;73817;48.446;8.834;2023-11-21T09:54:58;2.30;;;0.85;;
72335;SDS011;73817;48.446;8.834;2023-11-21T09:58:00;1.52;;;0.60;;
72335;SDS011;73817;48.446;8.834;2023-11-21T10:01:02;1.73;;;0.50;;
72335;SDS011;73817;48.446;8.834;2023-11-21T10:04:07;0.68;;;0.57;;
72335;SDS011;73817;48.446;8.834;2023-11-21T10:07:12;2.75;;;1.00;;
72335;SDS011;73817;48.446;8.834;2023-11-21T10:10:18;0.90;;;0.68;;
72335;SDS011;73817;48.446;8.834;2023-11-21T10:13:19;0.88;;;0.70;;
72335;SDS011;73817;48.446;8.834;2023-11-21T10:16:20;1.02;;;0.68;;
72335;SDS011;73817;48.446;8.834;2023-11-21T10:19:23;1.33;;;0.70;;
72335;SDS011;73817;48.446;8.834;2023-11-21T10:22:24;4.32;;;1.17;;
72335;SDS011;73817;48.446;8.834;2023-11-21T10:25:25;0.90;;;0.60;;
72335;SDS011;73817;48.446;8.834;2023-11-21T10:28:25;1.13;;;0.60;;
72335;SDS011;73817;48.446;8.834;2023-11-21T10:31:29;0.80;;;0.52;;
72335;SDS011;73817;48.446;8.834;2023-11-21T10:34:30;0.80;;;0.60;;
72335;SDS011;73817;48.446;8.834;2023-11-21T10:37:31;6.13;;;1.98;;
72335;SDS011;73817;48.446;8.834;2023-11-21T10:40:32;1.33;;;0.82;;
72335;SDS011;73817;48.446;8.834;2023-11-21T10:43:32;1.23;;;0.70;;
72335;SDS011;73817;48.446;8.834;2023-11-21T10:46:32;0.93;;;0.60;;
72335;SDS011;73817;48.446;8.834;2023-11-21T10:49:34;0.50;;;0.45;;
72335;SDS011;73817;48.446;8.834;2023-11-21T10:52:37;2.78;;;0.60;;
72335;SDS011;73817;48.446;8.834;2023-11-21T10:55:40;2.33;;;0.60;;
72335;SDS011;73817;48.446;8.834;2023-11-21T10:58:43;1.77;;;0.80;;
72335;SDS011;73817;48.446;8.834;2023-11-21T11:01:45;3.20;;;0.80;;
72335;SDS011;73817;48.446;8.834;2023-11-21T11:04:45;0.38;;;0.30;;
72335;SDS011;73817;48.446;8.834;2023-11-21T11:07:48;0.60;;;0.32;;
72335;SDS011;73817;48.446;8.834;2023-11-21T11:13:54;1.02;;;0.43;;
72335;SDS011;73817;48.446;8.834;2023-11-21T11:16:56;0.70;;;0.40;;
72335;SDS011;73817;48.446;8.834;2023-11-21T11:19:59;1.98;;;0.40;;
72335;SDS011;73817;48.446;8.834;2023-11-21T11:26:50;2.38;;;1.08;;
72335;SDS011;73817;48.446;8.834;2023-11-21T11:36:49;0.70;;;0.43;;
72335;SDS011;73817;48.446;8.834;2023-11-21T11:39:59;0.70;;;0.30;;
72335;SDS011;73817;48.446;8.834;2023-11-21T11:43:00;0.90;;;0.50;;
72335;SDS011;73817;48.446;8.834;2023-11-21T11:46:04;2.22;;;0.90;;
72335;SDS011;73817;48.446;8.834;2023-11-21T11:49:05;0.95;;;0.70;;
72335;SDS011;73817;48.446;8.834;2023-11-21T11:55:39;1.90;;;0.60;;
72335;SDS011;73817;48.446;8.834;2023-11-21T11:58:40;0.52;;;0.35;;
72335;SDS011;73817;48.446;8.834;2023-11-21T12:04:46;1.65;;;0.60;;
72335;SDS011;73817;48.446;8.834;2023-11-21T12:10:53;1.05;;;0.95;;
72335;SDS011;73817;48.446;8.834;2023-11-21T12:13:54;0.70;;;0.52;;
72335;SDS011;73817;48.446;8.834;2023-11-21T12:16:54;1.10;;;0.70;;
72335;SDS011;73817;48.446;8.834;2023-11-21T12:20:00;1.35;;;0.75;;
72335;SDS011;73817;48.446;8.834;2023-11-21T12:23:04;0.80;;;0.40;;
72335;SDS011;73817;48.446;8.834;2023-11-21T12:29:05;0.40;;;0.30;;
72335;SDS011;73817;48.446;8.834;2023-11-21T12:32:07;2.08;;;0.45;;
72335;SDS011;73817;48.446;8.834;2023-11-21T12:35:08;1.63;;;1.10;;
72335;SDS011;73817;48.446;8.834;2023-11-21T12:38:10;2.80;;;0.50;;
72335;SDS011;73817;48.446;8.834;2023-11-21T12:41:10;1.15;;;0.63;;
72335;SDS011;73817;48.446;8.834;2023-11-21T12:44:12;4.22;;;3.45;;
72335;SDS011;73817;48.446;8.834;2023-11-21T12:47:19;12.02;;;7.43;;
72335;SDS011;73817;48.446;8.834;2023-11-21T12:50:22;2.70;;;1.83;;
72335;SDS011;73817;48.446;8.834;2023-11-21T12:53:28;2.70;;;1.63;;
72335;SDS011;73817;48.446;8.834;2023-11-21T12:56:39;4.75;;;2.55;;
72335;SDS011;73817;48.446;8.834;2023-11-21T12:59:40;0.93;;;0.47;;
72335;SDS011;73817;48.446;8.834;2023-11-21T13:02:43;0.88;;;0.20;;
72335;SDS011;73817;48.446;8.834;2023-11-21T13:05:45;0.50;;;0.32;;
72335;SDS011;73817;48.446;8.834;2023-11-21T13:08:50;2.13;;;0.60;;
72335;SDS011;73817;48.446;8.834;2023-11-21T13:11:51;1.17;;;0.50;;
72335;SDS011;73817;48.446;8.834;2023-11-21T13:15:03;1.75;;;0.82;;
72335;SDS011;73817;48.446;8.834;2023-11-21T13:18:06;0.85;;;0.40;;
72335;SDS011;73817;48.446;8.834;2023-11-21T13:21:08;0.80;;;0.50;;
72335;SDS011;73817;48.446;8.834;2023-11-21T13:24:13;20.05;;;4.65;;
72335;SDS011;73817;48.446;8.834;2023-11-21T13:27:14;31.23;;;13.60;;
72335;SDS011;73817;48.446;8.834;2023-11-21T13:30:15;11.40;;;7.00;;
72335;SDS011;73817;48.446;8.834;2023-11-21T13:33:16;5.50;;;3.55;;
72335;SDS011;73817;48.446;8.834;2023-11-21T13:36:22;5.28;;;3.67;;
72335;SDS011;73817;48.446;8.834;2023-11-21T13:39:23;5.32;;;3.95;;
72335;SDS011;73817;48.446;8.834;2023-11-21T13:42:23;3.92;;;2.88;;
72335;SDS011;73817;48.446;8.834;2023-11-21T13:45:26;3.80;;;2.83;;
72335;SDS011;73817;48.446;8.834;2023-11-21T13:51:50;2.70;;;1.67;;
72335;SDS011;73817;48.446;8.834;2023-11-21T13:54:53;3.97;;;1.60;;
72335;SDS011;73817;48.446;8.834;2023-11-21T13:57:53;2.20;;;1.40;;
72335;SDS011;73817;48.446;8.834;2023-11-21T14:00:54;1.45;;;1.23;;
72335;SDS011;73817;48.446;8.834;2023-11-21T14:04:01;1.23;;;0.90;;
72335;SDS011;73817;48.446;8.834;2023-11-21T14:07:18;3.38;;;1.95;;
72335;SDS011;73817;48.446;8.834;2023-11-21T14:10:37;1.85;;;1.38;;
72335;SDS011;73817;48.446;8.834;2023-11-21T14:13:42;2.33;;;1.85;;
72335;SDS011;73817;48.446;8.834;2023-11-21T14:16:46;1.48;;;0.85;;
72335;SDS011;73817;48.446;8.834;2023-11-21T14:19:47;5.47;;;2.38;;
72335;SDS011;73817;48.446;8.834;2023-11-21T14:22:49;2.58;;;1.50;;
72335;SDS011;73817;48.446;8.834;2023-11-21T14:25:49;4.18;;;1.67;;
72335;SDS011;73817;48.446;8.834;2023-11-21T14:28:50;15.50;;;6.75;;
72335;SDS011;73817;48.446;8.834;2023-11-21T14:34:56;3.15;;;2.33;;
72335;SDS011;73817;48.446;8.834;2023-11-21T14:37:56;3.72;;;2.22;;
72335;SDS011;73817;48.446;8.834;2023-11-21T14:40:58;4.65;;;2.90;;
72335;SDS011;73817;48.446;8.834;2023-11-21T14:43:58;5.28;;;4.57;;
72335;SDS011;73817;48.446;8.834;2023-11-21T14:46:59;3.92;;;3.53;;
72335;SDS011;73817;48.446;8.834;2023-11-21T14:50:02;3.50;;;3.00;;
72335;SDS011;73817;48.446;8.834;2023-11-21T14:53:23;5.68;;;4.03;;
72335;SDS011;73817;48.446;8.834;2023-11-21T14:56:42;2.30;;;1.60;;
72335;SDS011;73817;48.446;8.834;2023-11-21T14:59:46;1.88;;;1.40;;
72335;SDS011;73817;48.446;8.834;2023-11-21T15:02:51;1.85;;;1.60;;
72335;SDS011;73817;48.446;8.834;2023-11-21T15:05:51;2.30;;;1.60;;
72335;SDS011;73817;48.446;8.834;2023-11-21T15:08:54;1.13;;;0.90;;
72335;SDS011;73817;48.446;8.834;2023-11-21T15:12:07;1.50;;;1.00;;
72335;SDS011;73817;48.446;8.834;2023-11-21T15:15:15;1.17;;;0.70;;
72335;SDS011;73817;48.446;8.834;2023-11-21T15:18:17;2.15;;;0.80;;
72335;SDS011;73817;48.446;8.834;2023-11-21T15:21:18;4.85;;;2.17;;
72335;SDS011;73817;48.446;8.834;2023-11-21T15:24:18;1.88;;;1.52;;
72335;SDS011;73817;48.446;8.834;2023-11-21T15:27:19;9.73;;;6.93;;
72335;SDS011;73817;48.446;8.834;2023-11-21T15:30:20;3.63;;;2.30;;
72335;SDS011;73817;48.446;8.834;2023-11-21T15:33:24;2.10;;;1.58;;
72335;SDS011;73817;48.446;8.834;2023-11-21T15:36:27;3.38;;;1.75;;
72335;SDS011;73817;48.446;8.834;2023-11-21T15:39:27;2.38;;;1.67;;
72335;SDS011;73817;48.446;8.834;2023-11-21T15:42:30;1.50;;;1.20;;
72335;SDS011;73817;48.446;8.834;2023-11-21T15:45:30;1.17;;;0.98;;
72335;SDS011;73817;48.446;8.834;2023-11-21T15:48:31;3.33;;;1.30;;
72335;SDS011;73817;48.446;8.834;2023-11-21T15:51:31;2.88;;;2.33;;
72335;SDS011;73817;48.446;8.834;2023-11-21T15:54:31;16.23;;;7.30;;
72335;SDS011;73817;48.446;8.834;2023-11-21T15:57:34;6.28;;;4.38;;
72335;SDS011;73817;48.446;8.834;2023-11-21T16:00:34;7.65;;;4.95;;
72335;SDS011;73817;48.446;8.834;2023-11-21T16:03:35;3.63;;;2.47;;
72335;SDS011;73817;48.446;8.834;2023-11-21T16:06:37;2.10;;;1.30;;
72335;SDS011;73817;48.446;8.834;2023-11-21T16:09:39;10.65;;;3.83;;
72335;SDS011;73817;48.446;8.834;2023-11-21T16:12:42;34.13;;;13.98;;
72335;SDS011;73817;48.446;8.834;2023-11-21T16:15:43;8.45;;;4.30;;
72335;SDS011;73817;48.446;8.834;2023-11-21T16:18:43;6.50;;;4.55;;
72335;SDS011;73817;48.446;8.834;2023-11-21T16:21:47;3.20;;;2.70;;
72335;SDS011;73817;48.446;8.834;2023-11-21T16:24:48;1.55;;;1.40;;
72335;SDS011;73817;48.446;8.834;2023-11-21T16:27:48;2.63;;;1.80;;
72335;SDS011;73817;48.446;8.834;2023-11-21T16:30:49;2.60;;;1.02;;
72335;SDS011;73817;48.446;8.834;2023-11-21T16:33:50;1.80;;;0.82;;
72335;SDS011;73817;48.446;8.834;2023-11-21T16:36:50;1.52;;;1.00;;
72335;SDS011;73817;48.446;8.834;2023-11-21T16:39:51;2.00;;;1.60;;
72335;SDS011;73817;48.446;8.834;2023-11-21T16:42:51;1.88;;;1.42;;
72335;SDS011;73817;48.446;8.834;2023-11-21T16:45:52;15.30;;;11.60;;
72335;SDS011;73817;48.446;8.834;2023-11-21T16:48:52;14.73;;;8.52;;
72335;SDS011;73817;48.446;8.834;2023-11-21T16:51:53;5.18;;;3.35;;
72335;SDS011;73817;48.446;8.834;2023-11-21T16:54:54;5.43;;;4.32;;
72335;SDS011;73817;48.446;8.834;2023-11-21T16:57:54;10.35;;;8.65;;
72335;SDS011;73817;48.446;8.834;2023-11-21T17:00:55;2.53;;;2.30;;
72335;SDS011;73817;48.446;8.834;2023-11-21T17:03:55;2.37;;;2.03;;
72335;SDS011;73817;48.446;8.834;2023-11-21T17:06:57;3.83;;;2.92;;
72335;SDS011;73817;48.446;8.834;2023-11-21T17:09:58;4.28;;;3.20;;
72335;SDS011;73817;48.446;8.834;2023-11-21T17:12:58;3.08;;;1.85;;
72335;SDS011;73817;48.446;8.834;2023-11-21T17:16:00;5.05;;;2.83;;
72335;SDS011;73817;48.446;8.834;2023-11-21T17:19:01;3.63;;;2.78;;
72335;SDS011;73817;48.446;8.834;2023-11-21T17:22:04;4.72;;;3.00;;
72335;SDS011;73817;48.446;8.834;2023-11-21T17:25:07;2.63;;;2.08;;
72335;SDS011;73817;48.446;8.834;2023-11-21T17:28:08;2.13;;;1.92;;
72335;SDS011;73817;48.446;8.834;2023-11-21T17:31:09;1.63;;;1.33;;
72335;SDS011;73817;48.446;8.834;2023-11-21T17:34:10;1.65;;;1.55;;
72335;SDS011;73817;48.446;8.834;2023-11-21T17:37:10;2.03;;;1.60;;
72335;SDS011;73817;48.446;8.834;2023-11-21T17:40:11;3.25;;;2.28;;
72335;SDS011;73817;48.446;8.834;2023-11-21T17:43:14;6.35;;;2.88;;
72335;SDS011;73817;48.446;8.834;2023-11-21T17:46:21;6.95;;;2.70;;
72335;SDS011;73817;48.446;8.834;2023-11-21T17:49:22;8.05;;;4.07;;
72335;SDS011;73817;48.446;8.834;2023-11-21T17:52:22;5.55;;;2.95;;
72335;SDS011;73817;48.446;8.834;2023-11-21T17:55:24;6.07;;;2.90;;
72335;SDS011;73817;48.446;8.834;2023-11-21T17:58:24;4.13;;;3.22;;
72335;SDS011;73817;48.446;8.834;2023-11-21T18:01:25;6.18;;;4.82;;
72335;SDS011;73817;48.446;8.834;2023-11-21T18:04:33;6.57;;;3.80;;
72335;SDS011;73817;48.446;8.834;2023-11-21T18:07:35;4.55;;;3.53;;
72335;SDS011;73817;48.446;8.834;2023-11-21T18:10:35;9.10;;;5.07;;
72335;SDS011;73817;48.446;8.834;2023-11-21T18:13:35;10.23;;;5.88;;
72335;SDS011;73817;48.446;8.834;2023-11-21T18:16:36;6.28;;;3.33;;
72335;SDS011;73817;48.446;8.834;2023-11-21T18:19:38;5.45;;;3.20;;
72335;SDS011;73817;48.446;8.834;2023-11-21T18:22:38;11.30;;;5.60;;
72335;SDS011;73817;48.446;8.834;2023-11-21T18:25:38;10.18;;;6.05;;
72335;SDS011;73817;48.446;8.834;2023-11-21T18:28:39;8.40;;;5.25;;
72335;SDS011;73817;48.446;8.834;2023-11-21T18:31:39;6.88;;;4.47;;
72335;SDS011;73817;48.446;8.834;2023-11-21T18:34:40;6.18;;;4.10;;
72335;SDS011;73817;48.446;8.834;2023-11-21T18:37:42;7.30;;;4.05;;
72335;SDS011;73817;48.446;8.834;2023-11-21T18:40:43;7.72;;;4.30;;
72335;SDS011;73817;48.446;8.834;2023-11-21T18:43:43;7.68;;;4.05;;
72335;SDS011;73817;48.446;8.834;2023-11-21T18:46:44;9.63;;;5.88;;
72335;SDS011;73817;48.446;8.834;2023-11-21T18:49:44;4.53;;;3.42;;